Terminal Aerodrome Forecast
Issued by NWS

Home | Current Version | Previous Version | Text Only | Print | Product List | Glossary On
Versions: 1 2 3 4 5 6 7 8 9 10 11 12 13
000
FTAK31 PAFA 291741 CCA
TAFAMC
TAF COR
PAMC 291741Z 2918/3018 20004KT P6SM VCSH FEW035 OVC070
     FM300000 20008G13KT 6SM -SHRA BR SCT025 BKN035 OVC050=

USA.gov is the U.S. government's official web portal to all federal, state and local government web resources and services.